Time;durP1;ratioP1;P1;durP2;ratioP2;P2;SDS_P1;SDS_P2;PMS_P1;PMS_P2;Temp;Humidity;BMP_temperature;BMP_pressure;BME280_temperature;BME280_humidity;BME280_pressure;Samples;Min_cycle;Max_cycle;Signal;HPM_P1;HPM_P2
2022/03/06 00:01:23;;;;;;;8.00;4.30;;;2.20;99.90;;;;;;4958239;28;20643;-84
2022/03/06 00:03:49;;;;;;;6.47;3.50;;;2.10;99.90;;;;;;4940790;29;20185;-86
2022/03/06 00:06:16;;;;;;;6.53;3.33;;;2.20;99.90;;;;;;4957959;28;20185;-85
2022/03/06 00:08:42;;;;;;;6.47;3.90;;;2.20;99.90;;;;;;4958043;29;20163;-86
2022/03/06 00:11:08;;;;;;;5.73;3.17;;;2.10;99.90;;;;;;4957604;28;20186;-85
2022/03/06 00:13:34;;;;;;;5.20;3.37;;;2.10;99.90;;;;;;4940530;29;20189;-84
2022/03/06 00:16:00;;;;;;;5.43;3.43;;;2.10;99.90;;;;;;4940420;29;20184;-85
2022/03/06 00:18:26;;;;;;;7.07;4.00;;;2.10;99.90;;;;;;4940429;29;20580;-85
2022/03/06 00:20:53;;;;;;;6.17;3.53;;;2.10;99.90;;;;;;4940502;29;20182;-85
2022/03/06 00:23:19;;;;;;;6.47;3.50;;;2.10;99.90;;;;;;4940752;29;20535;-85
2022/03/06 00:25:45;;;;;;;6.40;3.83;;;2.10;99.90;;;;;;4956858;29;20177;-85
2022/03/06 00:28:11;;;;;;;4.57;3.30;;;2.10;99.90;;;;;;4957276;29;20196;-85
2022/03/06 00:30:37;;;;;;;5.63;3.47;;;2.00;99.90;;;;;;4940452;29;20192;-85
2022/03/06 00:33:05;;;;;;;7.53;3.63;;;2.00;99.90;;;;;;4957520;29;20570;-85
2022/03/06 00:35:31;;;;;;;7.83;3.80;;;2.00;99.90;;;;;;5355574;23;20232;-89
2022/03/06 00:37:58;;;;;;;7.20;3.87;;;2.00;99.90;;;;;;4937486;29;20254;-89
2022/03/06 00:40:24;;;;;;;5.97;3.40;;;2.00;99.90;;;;;;4921664;29;20190;-89
2022/03/06 00:42:50;;;;;;;6.67;3.30;;;1.90;99.90;;;;;;4921559;29;20505;-90
2022/03/06 00:45:16;;;;;;;7.77;4.20;;;1.90;99.90;;;;;;4937537;29;20194;-90
2022/03/06 00:47:42;;;;;;;5.87;3.87;;;1.90;99.90;;;;;;4938497;29;20181;-89
2022/03/06 00:50:08;;;;;;;7.67;3.53;;;1.90;99.90;;;;;;4921633;29;20271;-89
2022/03/06 00:52:34;;;;;;;7.53;3.80;;;1.90;99.90;;;;;;4937572;29;20307;-90
2022/03/06 00:54:59;;;;;;;4.73;3.30;;;1.80;99.90;;;;;;4921497;29;20265;-90
2022/03/06 00:57:25;;;;;;;4.87;3.37;;;1.80;99.90;;;;;;4938049;29;20190;-90
2022/03/06 00:59:51;;;;;;;6.43;3.97;;;1.90;99.90;;;;;;4921520;29;20173;-91
2022/03/06 01:02:16;;;;;;;5.10;3.27;;;1.90;99.90;;;;;;4920998;29;20209;-90
2022/03/06 01:04:42;;;;;;;4.93;3.37;;;1.80;99.90;;;;;;4938231;29;20176;-89
2022/03/06 01:07:08;;;;;;;6.57;3.30;;;1.80;99.90;;;;;;4921082;29;20211;-90
2022/03/06 01:09:34;;;;;;;6.40;3.87;;;1.90;99.90;;;;;;4938228;29;20171;-90
2022/03/06 01:11:59;;;;;;;5.00;3.60;;;1.80;99.90;;;;;;4938228;29;20206;-89
2022/03/06 01:14:25;;;;;;;6.07;3.30;;;1.80;99.90;;;;;;4921394;29;20201;-90
2022/03/06 01:16:51;;;;;;;4.90;3.20;;;1.80;99.90;;;;;;4921035;29;20625;-90
2022/03/06 01:19:17;;;;;;;6.80;3.97;;;1.80;99.90;;;;;;4938210;29;20229;-90
2022/03/06 01:21:43;;;;;;;7.53;3.67;;;1.80;99.90;;;;;;4921025;29;20274;-90
2022/03/06 01:24:08;;;;;;;4.90;3.10;;;1.70;99.90;;;;;;4921048;29;20189;-89
2022/03/06 01:26:35;;;;;;;6.00;3.43;;;1.80;99.90;;;;;;4921116;29;20317;-90
2022/03/06 01:29:01;;;;;;;5.90;3.57;;;1.80;99.90;;;;;;4920751;29;20279;-91
2022/03/06 01:31:26;;;;;;;6.33;3.27;;;1.70;99.90;;;;;;4937020;29;20588;-91
2022/03/06 01:33:52;;;;;;;5.50;3.30;;;1.70;99.90;;;;;;4920441;29;20188;-89
2022/03/06 01:36:17;;;;;;;5.57;3.43;;;1.80;99.90;;;;;;4936367;29;20233;-90
2022/03/06 01:38:43;;;;;;;7.77;3.53;;;1.80;99.90;;;;;;4936724;29;20230;-90
2022/03/06 01:41:09;;;;;;;7.50;3.40;;;1.80;99.90;;;;;;4937133;29;20189;-88
2022/03/06 01:43:35;;;;;;;6.07;3.70;;;1.80;99.90;;;;;;4920975;29;20185;-90
2022/03/06 01:46:01;;;;;;;5.80;3.57;;;1.70;99.90;;;;;;4920428;29;20182;-89
2022/03/06 01:48:27;;;;;;;5.47;2.80;;;1.70;99.90;;;;;;4937607;29;20643;-89
2022/03/06 01:50:53;;;;;;;5.67;3.43;;;1.70;99.90;;;;;;4920684;29;20237;-89
2022/03/06 01:53:20;;;;;;;6.90;3.53;;;1.70;99.90;;;;;;4937350;29;20217;-89
2022/03/06 01:55:46;;;;;;;5.77;3.80;;;1.70;99.90;;;;;;4936609;29;20272;-89
2022/03/06 01:58:13;;;;;;;6.20;3.70;;;1.70;99.90;;;;;;4937464;29;20207;-90
2022/03/06 02:00:48;;;;;;;6.37;2.90;;;1.70;99.90;;;;;;4936709;29;20626;-90
2022/03/06 02:03:15;;;;;;;6.70;3.77;;;1.70;99.90;;;;;;4936655;29;20189;-90
2022/03/06 02:05:41;;;;;;;6.63;3.50;;;1.70;99.90;;;;;;4935618;29;20226;-86
2022/03/06 02:08:07;;;;;;;5.90;3.50;;;1.70;99.90;;;;;;4920637;29;20217;-90
2022/03/06 02:10:34;;;;;;;4.63;3.40;;;1.70;99.90;;;;;;4920569;29;20174;-90
2022/03/06 02:13:00;;;;;;;5.87;3.27;;;1.70;99.90;;;;;;4937492;29;20691;-90
2022/03/06 02:15:25;;;;;;;5.50;3.30;;;1.70;99.90;;;;;;4940125;29;20178;-91
2022/03/06 02:17:52;;;;;;;6.63;3.93;;;1.70;99.90;;;;;;4924047;29;20218;-90
2022/03/06 02:20:20;;;;;;;6.77;3.70;;;1.60;99.90;;;;;;4924559;29;20605;-90
2022/03/06 02:22:56;;;;;;;3.83;3.17;;;1.60;99.90;;;;;;4924062;29;20178;-90
2022/03/06 02:25:25;;;;;;;6.93;3.20;;;1.70;99.90;;;;;;4941118;29;20162;-90
2022/03/06 02:27:53;;;;;;;5.07;3.13;;;1.60;99.90;;;;;;4924168;29;20184;-91
2022/03/06 02:30:24;;;;;;;4.97;3.00;;;1.60;99.90;;;;;;4941256;29;20203;-90
2022/03/06 02:32:51;;;;;;;7.13;3.17;;;1.60;99.90;;;;;;4923219;29;20257;-90
2022/03/06 02:35:18;;;;;;;5.90;3.70;;;1.60;99.90;;;;;;4923863;29;20240;-90
2022/03/06 02:37:45;;;;;;;6.37;3.43;;;1.60;99.90;;;;;;4924001;29;20238;-90
2022/03/06 02:40:12;;;;;;;4.73;3.47;;;1.60;99.90;;;;;;4924206;29;20174;-91
2022/03/06 02:42:42;;;;;;;5.23;3.13;;;1.60;99.90;;;;;;4924107;29;20178;-90
2022/03/06 02:45:14;;;;;;;5.00;3.30;;;1.50;99.90;;;;;;4923909;29;20211;-89
2022/03/06 02:47:41;;;;;;;5.83;3.47;;;1.50;99.90;;;;;;4932531;29;20176;-90
2022/03/06 02:50:10;;;;;;;5.03;3.20;;;1.50;99.90;;;;;;4942437;29;20185;-89
2022/03/06 02:52:36;;;;;;;5.00;3.30;;;1.50;99.90;;;;;;4959525;29;20260;-90
2022/03/06 02:55:02;;;;;;;4.63;3.13;;;1.50;99.90;;;;;;4959940;29;20178;-89
2022/03/06 02:57:28;;;;;;;4.40;3.00;;;1.40;99.90;;;;;;4959813;29;20221;-90
2022/03/06 02:59:54;;;;;;;5.77;3.07;;;1.40;99.90;;;;;;4959784;29;20202;-89
2022/03/06 03:02:20;;;;;;;4.30;3.13;;;1.40;99.90;;;;;;4959541;29;20184;-89
2022/03/06 03:04:47;;;;;;;4.63;2.93;;;1.40;99.90;;;;;;4939233;29;20273;-90
2022/03/06 03:07:12;;;;;;;6.40;3.20;;;1.30;99.90;;;;;;4939373;29;20182;-90
2022/03/06 03:09:38;;;;;;;6.37;3.20;;;1.30;99.90;;;;;;4939943;29;20174;-90
2022/03/06 03:12:05;;;;;;;6.17;3.30;;;1.30;99.90;;;;;;4939223;29;20305;-91
2022/03/06 03:14:32;;;;;;;5.67;3.07;;;1.30;99.90;;;;;;4939237;29;20180;-90
2022/03/06 03:17:01;;;;;;;5.73;3.10;;;1.30;99.90;;;;;;4939997;29;20186;-91
2022/03/06 03:19:27;;;;;;;5.17;3.20;;;1.30;99.90;;;;;;4940023;29;20178;-90
2022/03/06 03:21:53;;;;;;;5.97;3.50;;;1.30;99.90;;;;;;4923224;29;20264;-90
2022/03/06 03:24:19;;;;;;;4.87;2.70;;;1.30;99.90;;;;;;4923168;29;20185;-90
2022/03/06 03:26:45;;;;;;;7.37;2.87;;;1.30;99.90;;;;;;4922545;29;20182;-91
2022/03/06 03:29:10;;;;;;;3.60;2.80;;;1.20;99.90;;;;;;4939890;29;20189;-90
2022/03/06 03:31:36;;;;;;;6.13;2.70;;;1.20;99.90;;;;;;4939920;29;20629;-89
2022/03/06 03:34:02;;;;;;;5.33;2.83;;;1.20;99.90;;;;;;4938174;29;20190;-90
2022/03/06 03:36:29;;;;;;;5.90;3.20;;;1.20;99.90;;;;;;4922812;29;20230;-90
2022/03/06 03:38:54;;;;;;;4.60;2.47;;;1.20;99.90;;;;;;4922816;29;20236;-91
2022/03/06 03:41:22;;;;;;;3.67;2.57;;;1.20;99.90;;;;;;4939980;29;20170;-89
2022/03/06 03:43:48;;;;;;;5.27;2.60;;;1.10;99.90;;;;;;4922812;29;20629;-91
2022/03/06 03:46:13;;;;;;;6.20;2.53;;;1.20;99.90;;;;;;4922802;29;20185;-90
2022/03/06 03:48:39;;;;;;;4.73;3.00;;;1.20;99.90;;;;;;4939530;29;20200;-90
2022/03/06 03:51:05;;;;;;;4.40;2.80;;;1.20;99.90;;;;;;4938841;29;20186;-90
2022/03/06 03:53:31;;;;;;;5.17;2.63;;;1.20;99.90;;;;;;4939527;29;20220;-89
2022/03/06 03:55:56;;;;;;;5.77;2.90;;;1.20;99.90;;;;;;4922713;29;20178;-90
2022/03/06 03:58:22;;;;;;;5.27;2.40;;;1.10;99.90;;;;;;4922474;29;20178;-91
2022/03/06 04:00:57;;;;;;;4.00;2.60;;;1.10;99.90;;;;;;4922552;29;20190;-89
2022/03/06 04:03:23;;;;;;;4.40;2.70;;;1.10;99.90;;;;;;4939326;29;20178;-90
2022/03/06 04:05:49;;;;;;;5.87;2.67;;;1.20;99.90;;;;;;4939375;29;20190;-90
2022/03/06 04:08:16;;;;;;;6.73;2.90;;;1.20;99.90;;;;;;4922427;29;20182;-89
2022/03/06 04:10:42;;;;;;;4.83;2.77;;;1.20;99.90;;;;;;4922367;29;20241;-89
2022/03/06 04:13:08;;;;;;;7.03;2.60;;;1.20;99.90;;;;;;4922197;29;20222;-89
2022/03/06 04:15:33;;;;;;;4.60;2.70;;;1.20;99.90;;;;;;4939182;29;20329;-90
2022/03/06 04:17:59;;;;;;;5.60;2.90;;;1.20;99.90;;;;;;4938723;29;20178;-90
2022/03/06 04:20:25;;;;;;;3.83;2.57;;;1.20;99.90;;;;;;4939189;29;20166;-91
2022/03/06 04:22:51;;;;;;;6.43;3.00;;;1.20;99.90;;;;;;4922111;29;20230;-91
2022/03/06 04:25:17;;;;;;;5.67;2.57;;;1.20;99.90;;;;;;4938939;29;20224;-90
2022/03/06 04:27:43;;;;;;;7.07;2.50;;;1.20;99.90;;;;;;4938675;29;20181;-90
2022/03/06 04:30:09;;;;;;;4.60;2.67;;;1.20;99.90;;;;;;4939067;29;20180;-89
2022/03/06 04:32:35;;;;;;;5.73;2.27;;;1.10;99.90;;;;;;4921352;29;20220;-91
2022/03/06 04:35:02;;;;;;;4.43;2.47;;;1.10;99.90;;;;;;4937011;29;20225;-89
2022/03/06 04:37:27;;;;;;;5.27;2.60;;;1.10;99.90;;;;;;4936660;29;20182;-90
2022/03/06 04:39:53;;;;;;;5.00;2.50;;;1.10;99.90;;;;;;4937438;29;20193;-90
2022/03/06 04:42:19;;;;;;;4.50;2.80;;;1.20;99.90;;;;;;4937608;29;20189;-90
2022/03/06 04:44:44;;;;;;;7.90;3.23;;;1.20;99.90;;;;;;4937532;29;20181;-90
2022/03/06 04:47:10;;;;;;;3.70;2.57;;;1.10;99.90;;;;;;4938797;29;20491;-91
2022/03/06 04:49:36;;;;;;;4.83;2.20;;;1.10;99.90;;;;;;4938511;29;20171;-90
2022/03/06 04:52:02;;;;;;;4.53;2.13;;;1.10;99.90;;;;;;4921627;29;20221;-90
2022/03/06 04:54:28;;;;;;;4.77;2.80;;;1.10;99.90;;;;;;4921658;29;20192;-89
2022/03/06 04:56:53;;;;;;;5.17;2.43;;;1.10;99.90;;;;;;4921333;29;20229;-89
2022/03/06 04:59:19;;;;;;;7.53;2.67;;;1.10;99.90;;;;;;4938326;29;20179;-90
2022/03/06 05:01:45;;;;;;;5.57;2.70;;;1.00;99.90;;;;;;4938388;29;20523;-90
2022/03/06 05:04:10;;;;;;;4.40;2.40;;;1.10;99.90;;;;;;4921216;29;20219;-90
2022/03/06 05:06:36;;;;;;;5.40;2.90;;;1.00;99.90;;;;;;4938197;29;20564;-90
2022/03/06 05:09:02;;;;;;;6.83;2.40;;;1.10;99.90;;;;;;4938232;29;20174;-90
2022/03/06 05:11:28;;;;;;;3.17;2.20;;;1.10;99.90;;;;;;4921454;29;20527;-90
2022/03/06 05:13:54;;;;;;;6.33;2.53;;;1.10;99.90;;;;;;4921393;29;20190;-89
2022/03/06 05:16:20;;;;;;;4.13;2.40;;;1.10;99.90;;;;;;4921117;29;20181;-90
2022/03/06 05:18:45;;;;;;;4.73;2.40;;;1.10;99.90;;;;;;4921179;29;20209;-91
2022/03/06 05:21:11;;;;;;;5.07;2.63;;;1.00;99.90;;;;;;4920350;29;20177;-89
2022/03/06 05:23:37;;;;;;;5.30;2.70;;;1.00;99.90;;;;;;4921247;29;20577;-89
2022/03/06 05:26:02;;;;;;;6.80;2.50;;;1.00;99.90;;;;;;4938012;29;20186;-90
2022/03/06 05:28:28;;;;;;;4.40;2.33;;;1.00;99.90;;;;;;4937795;29;20629;-91
2022/03/06 05:30:54;;;;;;;8.23;2.67;;;1.00;99.90;;;;;;4921113;29;20190;-90
2022/03/06 05:33:20;;;;;;;5.40;2.40;;;1.00;99.90;;;;;;4920873;29;20239;-89
2022/03/06 05:35:48;;;;;;;4.43;2.40;;;1.00;99.90;;;;;;4937932;29;20332;-89
2022/03/06 05:38:14;;;;;;;3.63;2.30;;;0.90;99.90;;;;;;4920786;29;20333;-90
2022/03/06 05:40:40;;;;;;;5.00;2.70;;;0.90;99.90;;;;;;4921078;29;20236;-90
2022/03/06 05:43:05;;;;;;;6.43;2.53;;;0.90;99.90;;;;;;4938035;29;20174;-91
2022/03/06 05:45:31;;;;;;;5.30;2.63;;;0.90;99.90;;;;;;4921138;29;20186;-90
2022/03/06 05:47:57;;;;;;;4.43;2.47;;;1.00;99.90;;;;;;4921255;29;20177;-91
2022/03/06 05:50:23;;;;;;;2.90;2.03;;;0.90;99.90;;;;;;4941279;29;20188;-90
2022/03/06 05:52:48;;;;;;;3.40;2.30;;;0.90;99.90;;;;;;4924382;29;20217;-90
2022/03/06 05:55:14;;;;;;;3.93;2.50;;;0.90;99.90;;;;;;4924688;29;20636;-90
2022/03/06 05:57:40;;;;;;;5.60;2.80;;;0.90;99.90;;;;;;4941725;29;20209;-91
2022/03/06 06:00:08;;;;;;;4.73;2.50;;;0.90;99.90;;;;;;4924928;29;20178;-90
2022/03/06 06:02:35;;;;;;;6.13;2.63;;;0.90;99.90;;;;;;4924769;29;20182;-91
2022/03/06 06:05:03;;;;;;;5.27;3.40;;;0.90;99.90;;;;;;4924538;29;20246;-90
2022/03/06 06:07:29;;;;;;;7.40;3.23;;;0.90;99.90;;;;;;4924254;29;20220;-90
2022/03/06 06:09:55;;;;;;;6.57;3.23;;;0.90;99.90;;;;;;4941543;29;20210;-91
2022/03/06 06:12:20;;;;;;;6.70;3.43;;;1.00;99.90;;;;;;4923817;29;20624;-91
2022/03/06 06:14:46;;;;;;;5.33;3.00;;;1.00;99.90;;;;;;4941443;29;20634;-90
2022/03/06 06:17:12;;;;;;;5.87;3.00;;;1.00;99.90;;;;;;4924567;29;20279;-90
2022/03/06 06:19:37;;;;;;;4.50;2.80;;;1.00;99.90;;;;;;4924356;29;20193;-91
2022/03/06 06:22:03;;;;;;;4.43;2.70;;;1.00;99.90;;;;;;4924110;29;20213;-90
2022/03/06 06:24:29;;;;;;;4.97;2.30;;;1.00;99.90;;;;;;4924144;29;20190;-90
2022/03/06 06:26:55;;;;;;;3.13;2.40;;;1.00;99.90;;;;;;4924234;29;20221;-90
2022/03/06 06:29:24;;;;;;;3.67;2.13;;;1.00;99.90;;;;;;4924117;29;20537;-90
2022/03/06 06:31:51;;;;;;;5.50;2.47;;;1.00;99.90;;;;;;4941049;29;20206;-89
2022/03/06 06:34:17;;;;;;;5.13;2.63;;;1.00;99.90;;;;;;4923590;29;20530;-91
2022/03/06 06:36:43;;;;;;;6.20;2.83;;;1.00;99.90;;;;;;4940647;29;20676;-91
2022/03/06 06:39:12;;;;;;;6.73;2.47;;;1.00;99.90;;;;;;4939727;29;20614;-90
2022/03/06 06:41:42;;;;;;;3.90;2.43;;;1.00;99.90;;;;;;4939938;29;20192;-90
2022/03/06 06:44:08;;;;;;;5.73;2.43;;;1.00;99.90;;;;;;4939914;29;20189;-91
2022/03/06 06:46:35;;;;;;;3.40;2.30;;;1.00;99.90;;;;;;4940804;29;20202;-91
2022/03/06 06:49:03;;;;;;;3.97;2.57;;;1.00;99.90;;;;;;4939625;29;20190;-90
2022/03/06 06:51:29;;;;;;;3.60;2.50;;;1.00;99.90;;;;;;4939236;29;20229;-90
2022/03/06 06:53:55;;;;;;;3.93;2.33;;;1.10;99.90;;;;;;4939497;29;20182;-91
2022/03/06 06:56:20;;;;;;;3.80;2.30;;;1.10;99.90;;;;;;4939606;29;20602;-90
2022/03/06 06:58:46;;;;;;;7.10;2.40;;;1.10;99.90;;;;;;4939535;29;20189;-91
2022/03/06 07:01:12;;;;;;;5.60;2.60;;;1.00;99.90;;;;;;4938237;29;20221;-90
2022/03/06 07:03:37;;;;;;;5.93;2.87;;;1.10;99.90;;;;;;4940299;29;20195;-90
2022/03/06 07:06:03;;;;;;;5.17;2.43;;;1.10;99.90;;;;;;4939266;29;20212;-90
2022/03/06 07:08:29;;;;;;;4.90;2.80;;;1.10;99.90;;;;;;4940199;29;20185;-90
2022/03/06 07:10:55;;;;;;;3.77;2.77;;;1.00;99.90;;;;;;4939558;29;20182;-90
2022/03/06 07:13:21;;;;;;;4.10;2.80;;;1.00;99.90;;;;;;4940354;29;20205;-91
2022/03/06 07:15:46;;;;;;;5.53;2.67;;;1.00;99.90;;;;;;4939437;29;20181;-89
2022/03/06 07:18:12;;;;;;;4.63;2.87;;;1.10;99.90;;;;;;4940169;29;20178;-90
2022/03/06 07:20:38;;;;;;;8.23;3.00;;;1.10;99.90;;;;;;4939163;29;20527;-92
2022/03/06 07:23:04;;;;;;;6.03;2.97;;;1.10;99.90;;;;;;4940237;29;20599;-92
2022/03/06 07:25:31;;;;;;;4.13;2.93;;;1.10;99.90;;;;;;4939110;29;20704;-91
2022/03/06 07:27:57;;;;;;;5.00;2.90;;;1.10;99.90;;;;;;4939216;29;20192;-90
2022/03/06 07:30:23;;;;;;;5.20;3.00;;;1.20;99.90;;;;;;4939224;29;20580;-90
2022/03/06 07:32:50;;;;;;;6.80;3.70;;;1.20;99.90;;;;;;4938746;29;20285;-91
2022/03/06 07:35:19;;;;;;;6.53;3.27;;;1.20;99.90;;;;;;4939669;29;20275;-92
2022/03/06 07:37:45;;;;;;;3.20;2.63;;;1.30;99.90;;;;;;4939912;29;20217;-91
2022/03/06 07:40:13;;;;;;;5.50;2.93;;;1.30;99.90;;;;;;4940131;29;20180;-90
2022/03/06 07:42:39;;;;;;;4.50;3.03;;;1.30;99.90;;;;;;4939859;29;20185;-91
2022/03/06 07:45:05;;;;;;;6.33;3.23;;;1.40;99.90;;;;;;4922792;29;20188;-92
2022/03/06 07:47:32;;;;;;;16.47;14.73;;;1.40;99.90;;;;;;4939605;29;20515;-93
2022/03/06 07:49:58;;;;;;;6.67;3.37;;;1.40;99.90;;;;;;4939761;29;20645;-92
2022/03/06 07:52:23;;;;;;;7.47;3.10;;;1.40;99.90;;;;;;4922349;29;20627;-92
2022/03/06 07:54:49;;;;;;;5.40;3.10;;;1.40;99.90;;;;;;4922940;29;20224;-91
2022/03/06 07:57:15;;;;;;;6.13;3.73;;;1.40;99.90;;;;;;4922713;29;20182;-92
2022/03/06 07:59:40;;;;;;;8.60;5.50;;;1.40;99.90;;;;;;4939694;29;20211;-91
2022/03/06 08:02:06;;;;;;;6.57;3.13;;;1.40;99.90;;;;;;4922575;29;20178;-92
2022/03/06 08:04:32;;;;;;;4.33;2.93;;;1.50;99.90;;;;;;4922389;29;20645;-92
2022/03/06 08:06:57;;;;;;;4.60;2.60;;;1.50;99.90;;;;;;4939195;29;20286;-92
2022/03/06 08:09:26;;;;;;;4.73;2.90;;;1.50;99.90;;;;;;4939427;29;20513;-89
2022/03/06 08:11:53;;;;;;;3.47;2.33;;;1.60;99.90;;;;;;4922148;29;20337;-91
2022/03/06 08:14:19;;;;;;;3.77;2.17;;;1.50;99.90;;;;;;4922263;29;20186;-91
2022/03/06 08:16:44;;;;;;;5.47;2.60;;;1.50;99.90;;;;;;4922052;29;20183;-92
2022/03/06 08:19:10;;;;;;;3.83;2.63;;;1.50;99.90;;;;;;4939181;29;20178;-91
2022/03/06 08:21:36;;;;;;;3.37;2.70;;;1.60;99.90;;;;;;4938056;29;20217;-91
2022/03/06 08:24:02;;;;;;;4.60;2.40;;;1.60;99.90;;;;;;4912268;29;20242;-90
2022/03/06 08:26:28;;;;;;;4.20;2.30;;;1.60;99.90;;;;;;4925619;29;20200;-92
2022/03/06 08:28:53;;;;;;;4.67;2.30;;;1.60;99.90;;;;;;4938866;29;20182;-90
2022/03/06 08:31:19;;;;;;;6.10;2.33;;;1.60;99.90;;;;;;4938840;29;20192;-90
2022/03/06 08:33:46;;;;;;;3.30;2.10;;;1.60;99.90;;;;;;4921903;29;20220;-91
2022/03/06 08:36:12;;;;;;;6.10;2.60;;;1.60;99.90;;;;;;4921646;29;20226;-92
2022/03/06 08:38:38;;;;;;;4.20;2.17;;;1.70;99.90;;;;;;4937379;29;20197;-88
2022/03/06 08:41:05;;;;;;;3.50;2.00;;;1.80;99.90;;;;;;4937810;29;20233;-90
2022/03/06 08:43:30;;;;;;;2.10;1.80;;;1.80;99.90;;;;;;4938935;29;20170;-92
2022/03/06 08:45:56;;;;;;;3.97;2.17;;;1.90;99.90;;;;;;4937479;29;20193;-91
2022/03/06 08:48:22;;;;;;;3.53;1.90;;;1.90;99.90;;;;;;4938255;29;20242;-91
2022/03/06 08:50:51;;;;;;;3.67;1.87;;;2.00;99.90;;;;;;4937513;29;20189;-88
2022/03/06 08:53:18;;;;;;;3.57;1.80;;;2.00;99.90;;;;;;4937221;29;20551;-90
2022/03/06 08:55:44;;;;;;;3.57;1.80;;;1.90;99.90;;;;;;4938583;29;20170;-92
2022/03/06 08:58:10;;;;;;;3.80;1.90;;;2.00;99.90;;;;;;4937330;29;20261;-91
2022/03/06 09:00:36;;;;;;;4.20;2.10;;;2.00;99.90;;;;;;4937138;29;20185;-90
2022/03/06 09:03:02;;;;;;;4.70;1.83;;;2.10;99.90;;;;;;4938352;29;20234;-92
2022/03/06 09:05:27;;;;;;;2.67;1.80;;;2.20;99.90;;;;;;4921279;29;20186;-89
2022/03/06 09:07:53;;;;;;;2.27;1.47;;;2.20;99.90;;;;;;4921409;29;20621;-91
2022/03/06 09:10:19;;;;;;;5.30;1.83;;;2.20;99.90;;;;;;4938434;29;20196;-91
2022/03/06 09:12:44;;;;;;;2.60;1.73;;;2.10;99.90;;;;;;4938303;29;20216;-91
2022/03/06 09:15:11;;;;;;;2.90;1.50;;;2.10;99.90;;;;;;4938361;29;20162;-91
2022/03/06 09:17:37;;;;;;;2.23;1.60;;;2.00;99.90;;;;;;4938298;29;20173;-89
2022/03/06 09:20:04;;;;;;;3.57;1.77;;;2.10;99.90;;;;;;4938328;29;20185;-91
2022/03/06 09:22:30;;;;;;;3.23;1.57;;;2.10;99.90;;;;;;4938084;29;20182;-90
2022/03/06 09:24:56;;;;;;;3.07;1.67;;;2.10;99.90;;;;;;4937852;29;20209;-89
2022/03/06 09:27:22;;;;;;;2.87;1.70;;;2.10;99.90;;;;;;4921032;29;20181;-90
2022/03/06 09:29:48;;;;;;;3.37;1.70;;;2.00;99.90;;;;;;4938012;29;20180;-88
2022/03/06 09:32:14;;;;;;;3.30;1.50;;;1.90;99.90;;;;;;4937677;29;20245;-91
2022/03/06 09:34:39;;;;;;;6.43;1.60;;;2.00;99.90;;;;;;4936095;29;20181;-88
2022/03/06 09:37:05;;;;;;;2.40;1.83;;;2.00;99.90;;;;;;4937623;29;20196;-91
2022/03/06 09:39:31;;;;;;;2.43;1.70;;;1.90;99.90;;;;;;4920781;29;20224;-90
2022/03/06 09:41:57;;;;;;;2.00;1.40;;;2.00;99.90;;;;;;4937463;29;20186;-90
2022/03/06 09:44:27;;;;;;;4.30;1.63;;;1.90;99.90;;;;;;4920730;29;20186;-90
2022/03/06 09:46:56;;;;;;;4.30;1.83;;;1.90;99.90;;;;;;4937436;29;20257;-91
2022/03/06 09:49:22;;;;;;;3.93;2.03;;;1.80;99.90;;;;;;4920996;29;20217;-91
2022/03/06 09:51:48;;;;;;;3.40;2.10;;;1.90;99.90;;;;;;4920611;29;20238;-89
2022/03/06 09:54:13;;;;;;;3.73;2.30;;;1.90;99.90;;;;;;4920864;29;20210;-91
2022/03/06 09:56:40;;;;;;;2.00;1.57;;;1.90;99.90;;;;;;4920073;29;20188;-89
2022/03/06 09:59:06;;;;;;;3.13;1.83;;;1.90;99.90;;;;;;4920569;29;20224;-90
2022/03/06 10:01:32;;;;;;;2.93;1.83;;;1.90;99.90;;;;;;4920513;29;20191;-90
2022/03/06 10:03:58;;;;;;;7.70;2.07;;;1.90;99.90;;;;;;4922874;29;20181;-91
2022/03/06 10:06:23;;;;;;;4.03;1.70;;;1.90;99.90;;;;;;4928255;29;20189;-90
2022/03/06 10:09:11;;;;;;;2.30;1.70;;;1.90;99.90;;;;;;4927931;29;20282;-89
2022/03/06 10:11:38;;;;;;;3.70;1.83;;;1.90;99.90;;;;;;4931949;29;20630;-88
2022/03/06 10:14:04;;;;;;;5.87;1.87;;;1.90;99.90;;;;;;4938468;29;20267;-90
2022/03/06 10:16:30;;;;;;;2.67;1.67;;;1.80;99.90;;;;;;4939283;29;20344;-90
2022/03/06 10:18:56;;;;;;;4.27;2.03;;;1.90;99.90;;;;;;4939495;29;20189;-92
2022/03/06 10:21:25;;;;;;;3.77;1.90;;;1.90;99.90;;;;;;4939413;29;20194;-90
2022/03/06 10:24:05;;;;;;;2.83;2.07;;;1.90;99.90;;;;;;4956290;29;20177;-90
2022/03/06 10:26:35;;;;;;;3.20;2.07;;;1.90;99.90;;;;;;4939658;29;20173;-90
2022/03/06 10:29:03;;;;;;;3.50;1.60;;;2.00;99.90;;;;;;4920537;29;20193;-90
2022/03/06 10:31:33;;;;;;;4.20;2.07;;;2.10;99.90;;;;;;4920395;29;20178;-90
2022/03/06 10:34:07;;;;;;;2.63;1.90;;;2.10;99.90;;;;;;4929538;29;20223;-89
2022/03/06 10:36:40;;;;;;;4.27;2.13;;;2.20;99.90;;;;;;4942931;29;20686;-89
2022/03/06 10:39:20;;;;;;;3.60;2.20;;;2.10;99.90;;;;;;4946847;29;20221;-89
2022/03/06 10:41:53;;;;;;;6.73;4.07;;;2.10;99.90;;;;;;4931303;29;20578;-89
2022/03/06 10:44:21;;;;;;;2.63;2.27;;;2.10;99.90;;;;;;4947122;29;20188;-89
2022/03/06 10:47:03;;;;;;;2.67;1.80;;;2.10;99.90;;;;;;4932072;29;20189;-89
2022/03/06 10:49:30;;;;;;;4.13;2.27;;;2.10;99.90;;;;;;4933154;29;20170;-89
2022/03/06 10:51:56;;;;;;;6.37;2.20;;;2.20;99.90;;;;;;4931815;29;20300;-88
2022/03/06 10:54:22;;;;;;;3.60;2.20;;;2.10;99.90;;;;;;4928135;29;20265;-91
2022/03/06 10:56:50;;;;;;;3.77;1.93;;;2.10;99.90;;;;;;4923592;29;20216;-89
2022/03/06 10:59:25;;;;;;;2.67;1.90;;;2.10;99.90;;;;;;4939341;29;20225;-88
2022/03/06 11:01:51;;;;;;;3.70;2.00;;;2.10;99.90;;;;;;4940554;29;20162;-90
2022/03/06 11:04:18;;;;;;;2.60;2.40;;;2.10;99.90;;;;;;4955763;29;20184;-94
2022/03/06 11:06:46;;;;;;;2.43;1.90;;;2.10;99.90;;;;;;4925916;29;20582;-93
2022/03/06 11:09:17;;;;;;;3.53;2.17;;;2.20;99.90;;;;;;4923410;29;20208;-92
2022/03/06 11:11:45;;;;;;;2.27;1.97;;;2.20;99.90;;;;;;4939283;29;20200;-94
2022/03/06 11:14:12;;;;;;;4.30;2.20;;;2.30;99.90;;;;;;4939713;29;20193;-95
2022/03/06 11:16:39;;;;;;;5.60;1.97;;;2.30;99.90;;;;;;4939695;29;20276;-93
2022/03/06 11:19:06;;;;;;;5.90;2.30;;;2.40;99.90;;;;;;4939705;29;20189;-93
2022/03/06 11:21:34;;;;;;;4.80;2.03;;;2.20;99.90;;;;;;4938984;29;20181;-94
2022/03/06 11:24:12;;;;;;;3.10;1.70;;;2.30;99.90;;;;;;4938927;29;20578;-96
2022/03/06 11:27:16;;;;;;;2.53;2.20;;;2.30;99.90;;;;;;4941125;29;20728;-94
2022/03/06 11:30:08;;;;;;;5.00;2.07;;;2.30;99.90;;;;;;4905984;29;20269;-95
2022/03/06 11:32:39;;;;;;;3.53;1.87;;;2.30;99.90;;;;;;4940076;29;20213;-93
2022/03/06 11:35:12;;;;;;;3.40;1.90;;;2.30;99.90;;;;;;4936821;29;20190;-91
2022/03/06 11:37:55;;;;;;;3.03;1.77;;;2.20;99.90;;;;;;4939940;29;20189;-91
2022/03/06 11:40:44;;;;;;;2.00;1.80;;;2.10;99.90;;;;;;4939394;29;20627;-94
2022/03/06 11:43:31;;;;;;;4.60;2.17;;;2.00;99.90;;;;;;4938354;29;20595;-93
2022/03/06 11:46:21;;;;;;;2.40;2.00;;;2.10;99.90;;;;;;4920821;29;20237;-92
2022/03/06 11:48:47;;;;;;;3.13;2.00;;;2.20;99.90;;;;;;4938263;29;20182;-94
2022/03/06 11:51:21;;;;;;;1.87;1.67;;;2.10;99.90;;;;;;4938475;29;20671;-96
2022/03/06 11:54:09;;;;;;;2.47;1.97;;;2.20;99.90;;;;;;4937058;29;20215;-93
2022/03/06 11:56:35;;;;;;;4.47;3.00;;;2.20;99.90;;;;;;4935951;29;20185;-94
2022/03/06 11:59:10;;;;;;;3.03;1.87;;;2.20;99.90;;;;;;4939061;29;20199;-93
2022/03/06 12:01:35;;;;;;;2.73;1.60;;;2.30;99.90;;;;;;4937131;29;20189;-92
2022/03/06 12:04:02;;;;;;;4.07;1.83;;;2.30;99.90;;;;;;4937369;29;20691;-95
2022/03/06 12:06:28;;;;;;;2.13;1.57;;;2.20;99.90;;;;;;4938243;29;20204;-95
2022/03/06 12:09:01;;;;;;;3.63;1.63;;;2.10;99.90;;;;;;4938960;29;20280;-90
2022/03/06 12:11:30;;;;;;;2.03;1.50;;;2.20;99.90;;;;;;4934009;29;20197;-93
2022/03/06 12:14:11;;;;;;;4.40;1.90;;;2.20;99.90;;;;;;4937482;29;20228;-92
2022/03/06 12:17:00;;;;;;;3.40;1.80;;;2.20;99.90;;;;;;4936314;29;20214;-94
2022/03/06 12:19:27;;;;;;;2.60;1.60;;;2.20;99.90;;;;;;4935657;29;20212;-93
2022/03/06 12:22:06;;;;;;;3.20;1.60;;;2.20;99.90;;;;;;4936410;29;20276;-91
2022/03/06 12:24:32;;;;;;;4.10;2.00;;;2.30;99.90;;;;;;4935076;29;20213;-90
2022/03/06 12:26:58;;;;;;;6.43;2.40;;;2.40;99.90;;;;;;4936634;29;20229;-92
2022/03/06 12:29:45;;;;;;;4.17;1.73;;;2.20;99.90;;;;;;4935554;29;20549;-88
2022/03/06 12:32:29;;;;;;;3.57;1.30;;;2.10;99.90;;;;;;4936259;29;20217;-90
2022/03/06 12:35:25;;;;;;;3.30;1.80;;;2.20;99.90;;;;;;4918442;29;20643;-90
2022/03/06 12:38:00;;;;;;;3.47;2.40;;;2.20;99.90;;;;;;4927580;29;20239;-90
2022/03/06 12:40:29;;;;;;;8.03;1.80;;;2.20;99.90;;;;;;4934384;29;20188;-89
2022/03/06 12:43:04;;;;;;;2.33;2.00;;;2.20;99.90;;;;;;4936929;29;20254;-91
2022/03/06 12:45:31;;;;;;;3.93;2.00;;;2.10;99.90;;;;;;4936278;29;20186;-89
2022/03/06 12:47:57;;;;;;;3.60;2.10;;;2.10;99.90;;;;;;4937200;29;20186;-90
2022/03/06 12:50:24;;;;;;;2.90;1.70;;;2.10;99.90;;;;;;4940421;29;20202;-92
2022/03/06 12:52:53;;;;;;;2.63;2.10;;;2.30;99.90;;;;;;4916846;29;20248;-90
2022/03/06 12:55:20;;;;;;;4.87;1.90;;;2.30;99.90;;;;;;4941162;29;20189;-92
2022/03/06 12:57:50;;;;;;;2.70;1.90;;;2.30;99.90;;;;;;4935486;29;20551;-91
2022/03/06 13:00:26;;;;;;;4.53;2.20;;;2.20;99.90;;;;;;4918990;29;20268;-93